Time;durP1;ratioP1;P1;durP2;ratioP2;P2;SDS_P1;SDS_P2;PMS_P1;PMS_P2;Temp;Humidity;BMP_temperature;BMP_pressure;BME280_temperature;BME280_humidity;BME280_pressure;Samples;Min_cycle;Max_cycle;Signal;HPM_P1;HPM_P2
2022/07/03 00:09:09;;;;;;;8.05;4.78;;;;;;;26.34;42.28;100663.84;20231914;28;99291;-78
2022/07/03 00:19:09;;;;;;;5.43;4.38;;;;;;;26.30;42.72;100660.66;20230426;28;98104;-78
2022/07/03 00:29:11;;;;;;;5.15;4.63;;;;;;;26.16;42.97;100664.63;20236648;28;98886;-78
2022/07/03 00:39:12;;;;;;;10.52;4.88;;;;;;;26.07;43.49;100651.41;20234756;28;98092;-78
2022/07/03 00:49:15;;;;;;;7.38;5.20;;;;;;;26.12;43.17;100649.13;20237443;28;97117;-78
2022/07/03 00:59:16;;;;;;;5.25;4.72;;;;;;;25.81;43.88;100644.88;20252496;28;98062;-79
2022/07/03 01:09:25;;;;;;;7.17;5.10;;;;;;;25.57;44.51;100654.13;20243814;28;97706;-78
2022/07/03 01:19:37;;;;;;;5.72;4.45;;;;;;;25.92;43.48;100643.88;20259638;28;98150;-78
2022/07/03 01:29:51;;;;;;;6.95;5.13;;;;;;;25.54;44.23;100630.53;20243893;28;97689;-78
2022/07/03 01:39:53;;;;;;;7.00;5.05;;;;;;;25.32;44.23;100628.19;20244922;28;97814;-78
2022/07/03 01:49:53;;;;;;;;;;;;;;;25.13;44.86;100623.72;20246912;28;99042;-79
2022/07/03 01:59:59;;;;;;;6.18;5.00;;;;;;;25.05;45.07;100625.22;20239810;28;97806;-78
2022/07/03 02:10:11;;;;;;;6.85;5.38;;;;;;;25.03;45.19;100629.00;20244540;28;97700;-78
2022/07/03 02:20:12;;;;;;;6.15;4.80;;;;;;;25.07;44.92;100622.44;20243137;28;97285;-78
2022/07/03 02:30:13;;;;;;;8.48;5.03;;;;;;;24.85;45.42;100620.91;20228237;28;97797;-78
2022/07/03 02:40:25;;;;;;;8.33;5.57;;;;;;;24.84;45.74;100627.16;20232047;28;100491;-77
2022/07/03 02:50:28;;;;;;;8.47;5.63;;;;;;;24.71;45.71;100627.44;20236126;28;97620;-78
2022/07/03 03:00:34;;;;;;;8.05;5.35;;;;;;;24.54;46.18;100629.72;20234993;28;97190;-77
2022/07/03 03:10:37;;;;;;;6.63;5.55;;;;;;;24.49;46.41;100633.75;20237919;28;97334;-78
2022/07/03 03:20:39;;;;;;;8.77;5.07;;;;;;;24.72;46.22;100637.06;20232831;28;97015;-78
2022/07/03 03:30:40;;;;;;;6.82;5.68;;;;;;;24.60;46.85;100657.47;20242204;28;97373;-80
2022/07/03 03:40:43;;;;;;;8.20;5.15;;;;;;;24.97;45.90;100633.03;20219562;28;97492;-78
2022/07/03 03:50:45;;;;;;;6.20;5.10;;;;;;;25.41;44.81;100632.66;20231811;28;97040;-79
2022/07/03 04:00:45;;;;;;;10.32;5.07;;;;;;;25.31;45.60;100618.53;20233022;28;99464;-78
2022/07/03 04:10:46;;;;;;;7.18;4.78;;;;;;;25.62;44.69;100619.25;20224782;28;101460;-78
2022/07/03 04:20:47;;;;;;;8.17;5.50;;;;;;;25.30;45.16;100641.53;20217376;28;98326;-78
2022/07/03 04:30:47;;;;;;;7.63;5.30;;;;;;;24.93;46.09;100645.72;20217713;28;97129;-79
2022/07/03 04:40:50;;;;;;;6.88;5.30;;;;;;;24.87;45.50;100634.84;20220888;28;97774;-78
2022/07/03 04:50:50;;;;;;;14.07;10.57;;;;;;;25.24;45.04;100629.72;20209158;28;99776;-78
2022/07/03 05:00:51;;;;;;;10.52;8.52;;;;;;;25.34;44.84;100627.06;20222723;28;102189;-78
2022/07/03 05:10:52;;;;;;;9.07;7.00;;;;;;;25.66;44.24;100614.47;20221275;28;97073;-79
2022/07/03 05:20:53;;;;;;;8.75;5.90;;;;;;;25.69;44.41;100608.88;20218156;28;96898;-78
2022/07/03 05:30:53;;;;;;;7.47;6.13;;;;;;;25.54;44.66;100608.50;20211074;28;97050;-79
2022/07/03 05:40:57;;;;;;;11.18;8.27;;;;;;;25.64;44.19;100605.84;20229018;28;97295;-78
2022/07/03 05:50:57;;;;;;;8.18;6.60;;;;;;;25.65;44.94;100607.50;20228771;28;96938;-78
2022/07/03 06:00:58;;;;;;;7.95;6.03;;;;;;;25.87;44.46;100614.28;20227893;28;96995;-79
2022/07/03 06:10:58;;;;;;;6.68;5.70;;;;;;;25.68;44.96;100609.84;20236770;28;96950;-78
2022/07/03 06:20:59;;;;;;;6.18;5.20;;;;;;;25.95;44.46;100609.09;20228557;28;97261;-79
2022/07/03 06:30:59;;;;;;;7.22;5.43;;;;;;;26.01;44.45;100623.59;20226040;28;96957;-79
2022/07/03 06:41:00;;;;;;;6.70;5.75;;;;;;;25.93;44.49;100618.16;20233759;28;97329;-79
2022/07/03 06:51:01;;;;;;;;;;;;;;;26.07;44.47;100623.03;20241492;28;97532;-77
2022/07/03 07:01:01;;;;;;;15.15;7.32;;;;;;;26.17;44.37;100610.56;20230732;28;97107;-78
2022/07/03 07:11:02;;;;;;;9.17;6.57;;;;;;;26.31;43.98;100598.63;20225442;28;97148;-78
2022/07/03 07:21:02;;;;;;;9.48;6.30;;;;;;;26.51;43.80;100590.53;20225427;28;97452;-77
2022/07/03 07:31:03;;;;;;;9.53;6.30;;;;;;;26.67;43.71;100596.03;20249863;28;98617;-78
2022/07/03 07:41:04;;;;;;;11.57;6.87;;;;;;;26.73;43.36;100580.47;20221607;28;97328;-80
2022/07/03 07:51:04;;;;;;;12.68;5.97;;;;;;;26.82;43.44;100592.91;20231434;28;98388;-77
2022/07/03 08:11:24;;;;;;;12.02;5.53;;;;;;;27.10;43.71;100606.06;20229842;28;97025;-77
2022/07/03 08:21:24;;;;;;;10.15;5.38;;;;;;;27.18;43.55;100595.53;20228125;28;96922;-77
2022/07/03 08:31:25;;;;;;;6.90;5.28;;;;;;;27.33;44.53;100590.47;20225672;28;97885;-78
2022/07/03 08:41:26;;;;;;;8.00;4.97;;;;;;;27.43;44.72;100588.59;20229982;28;101144;-81
2022/07/03 08:51:29;;;;;;;8.75;5.28;;;;;;;27.54;44.29;100590.19;20246625;28;98703;-80
2022/07/03 09:01:31;;;;;;;9.35;5.38;;;;;;;27.68;43.86;100578.13;20223844;28;97036;-80
2022/07/03 09:11:32;;;;;;;15.05;4.80;;;;;;;27.77;43.18;100577.19;20247317;28;99918;-82
2022/07/03 09:21:41;;;;;;;6.45;4.13;;;;;;;27.89;42.78;100567.09;20251493;28;103019;-83
2022/07/03 09:31:42;;;;;;;5.55;4.28;;;;;;;27.98;41.75;100559.97;20254838;28;97442;-82
2022/07/03 09:42:00;;;;;;;4.07;3.67;;;;;;;28.08;41.47;100547.41;20263482;28;100765;-82
2022/07/03 09:52:01;;;;;;;4.78;3.95;;;;;;;28.16;41.83;100532.44;20242087;28;98128;-82
2022/07/03 10:02:08;;;;;;;5.03;4.13;;;;;;;28.19;41.71;100522.31;20260259;28;96951;-82
2022/07/03 10:12:09;;;;;;;6.30;3.83;;;;;;;28.25;41.16;100512.84;20254163;28;96931;-83
2022/07/03 10:22:19;;;;;;;4.45;4.05;;;;;;;28.33;41.13;100501.38;20237608;28;100033;-82
2022/07/03 10:32:19;;;;;;;6.70;4.03;;;;;;;28.42;40.45;100501.22;20230844;28;98288;-82
2022/07/03 10:53:24;;;;;;;4.30;3.90;;;;;;;28.55;40.93;100474.13;20215827;28;96975;-84
2022/07/03 11:03:54;;;;;;;6.68;4.13;;;;;;;28.64;40.73;100464.28;20241663;28;100021;-82
2022/07/03 11:14:22;;;;;;;5.38;4.03;;;;;;;28.71;40.55;100457.31;20235824;28;97793;-80
2022/07/03 11:24:45;;;;;;;6.47;4.03;;;;;;;28.92;41.79;100442.66;20169173;28;100439;-81
2022/07/03 11:34:45;;;;;;;16.27;4.60;;;;;;;29.13;45.46;100434.09;20212704;28;97121;-82
2022/07/03 11:44:46;;;;;;;11.65;3.85;;;;;;;29.31;47.17;100419.72;20218216;28;97159;-79
2022/07/03 11:54:53;;;;;;;10.68;3.78;;;;;;;29.37;47.03;100409.22;20228229;28;97163;-80
2022/07/03 12:04:53;;;;;;;5.15;3.65;;;;;;;29.37;46.43;100406.53;20229116;28;98495;-81
2022/07/03 12:14:57;;;;;;;7.03;3.20;;;;;;;29.41;45.35;100392.84;20249740;28;97851;-83
2022/07/03 12:25:01;;;;;;;4.55;3.13;;;;;;;29.47;44.55;100370.84;20245346;28;98867;-82
2022/07/03 12:35:05;;;;;;;5.00;2.83;;;;;;;29.52;43.98;100352.47;20240342;28;97057;-80
2022/07/03 12:45:07;;;;;;;3.85;2.70;;;;;;;29.57;43.57;100357.28;20234844;28;97032;-80
2022/07/03 12:55:25;;;;;;;3.83;2.80;;;;;;;29.58;43.32;100349.09;20255424;28;96987;-80
2022/07/03 13:05:25;;;;;;;3.45;2.75;;;;;;;29.61;43.02;100337.25;20247898;28;97132;-80
2022/07/03 13:15:27;;;;;;;5.55;2.72;;;;;;;29.65;42.48;100328.72;20251599;28;97124;-81
2022/07/03 13:25:29;;;;;;;2.75;2.45;;;;;;;29.70;42.81;100314.84;20255222;28;96977;-81
2022/07/03 13:35:30;;;;;;;2.67;2.40;;;;;;;29.80;42.27;100311.94;20246318;28;98223;-81
2022/07/03 13:45:31;;;;;;;2.28;2.10;;;;;;;29.84;41.79;100299.88;20255710;28;98461;-82
2022/07/03 13:55:32;;;;;;;2.83;2.22;;;;;;;29.89;42.77;100300.16;20249642;28;97496;-80
2022/07/03 14:05:33;;;;;;;3.15;2.15;;;;;;;29.92;42.41;100297.19;20249407;28;101821;-81
2022/07/03 14:15:33;;;;;;;2.75;2.15;;;;;;;29.94;42.37;100294.34;20241884;28;97570;-81
2022/07/03 14:25:36;;;;;;;2.72;2.10;;;;;;;29.96;42.01;100282.47;20236891;28;98253;-81
2022/07/03 14:35:37;;;;;;;3.20;1.92;;;;;;;30.01;41.84;100284.59;20247214;28;97766;-82
2022/07/03 14:45:38;;;;;;;2.50;2.00;;;;;;;30.06;42.12;100287.53;20236080;28;97434;-79
2022/07/03 14:55:42;;;;;;;1.98;1.88;;;;;;;30.07;42.27;100278.53;20224051;28;97047;-79
2022/07/03 15:05:43;;;;;;;2.28;1.98;;;;;;;30.12;42.47;100278.81;20230102;28;101435;-80
2022/07/03 15:15:46;;;;;;;4.70;2.17;;;;;;;30.12;42.53;100278.81;20228243;28;98105;-78
2022/07/03 15:25:48;;;;;;;2.30;2.10;;;;;;;30.12;42.46;100267.31;20233030;28;97455;-79
2022/07/03 15:35:57;;;;;;;3.30;2.20;;;;;;;30.13;42.06;100272.47;20200643;28;98420;-78
2022/07/03 15:46:26;;;;;;;60.40;29.45;;;;;;;30.14;42.23;100270.63;20217644;28;100038;-79
2022/07/03 15:56:34;;;;;;;44.30;20.43;;;;;;;30.14;43.13;100265.31;20194326;28;97904;-80
2022/07/03 16:06:41;;;;;;;32.67;13.43;;;;;;;30.10;43.00;100258.66;20208361;28;97641;-78
2022/07/03 16:16:43;;;;;;;23.02;9.95;;;;;;;30.12;43.42;100259.31;20214689;28;97693;-79
2022/07/03 16:26:43;;;;;;;17.00;7.65;;;;;;;30.11;43.17;100257.63;20219973;28;97692;-79
2022/07/03 16:36:47;;;;;;;13.57;5.70;;;;;;;30.12;43.06;100264.63;20216227;28;99080;-79
2022/07/03 16:46:49;;;;;;;12.35;6.03;;;;;;;30.07;42.45;100257.16;20226029;28;98007;-79
2022/07/03 16:56:50;;;;;;;8.13;4.60;;;;;;;30.04;42.71;100260.19;20203506;28;99152;-79
2022/07/03 17:06:52;;;;;;;8.82;4.65;;;;;;;30.03;42.85;100256.69;20200638;28;98148;-79
2022/07/03 17:17:00;;;;;;;7.82;4.55;;;;;;;30.05;43.59;100263.72;20220278;28;97025;-79
2022/07/03 17:27:04;;;;;;;8.15;4.10;;;;;;;30.02;43.16;100254.22;20210126;28;100018;-78
2022/07/03 17:37:06;;;;;;;10.07;3.30;;;;;;;30.13;38.09;100266.31;20203367;28;97630;-81
2022/07/03 17:47:12;;;;;;;5.57;2.30;;;;;;;30.17;33.33;100255.06;20221945;28;98109;-79
2022/07/03 18:08:05;;;;;;;6.10;2.50;;;;;;;30.18;32.59;100247.88;20233972;28;101073;-81
2022/07/03 18:18:13;;;;;;;2.17;1.98;;;;;;;30.22;32.41;100253.69;20237990;28;97161;-81
2022/07/03 18:28:15;;;;;;;3.03;2.00;;;;;;;30.17;33.75;100257.72;20226914;28;98103;-75
2022/07/03 18:38:17;;;;;;;3.17;2.25;;;;;;;29.97;32.84;100262.78;20205723;28;97563;-74
2022/07/03 18:48:17;;;;;;;3.75;2.30;;;;;;;29.91;33.88;100273.34;20190289;28;99955;-75
2022/07/03 18:58:23;;;;;;;2.43;2.23;;;;;;;29.81;33.85;100281.53;20222673;28;97054;-75
2022/07/03 19:08:32;;;;;;;3.78;2.25;;;;;;;29.64;33.42;100291.53;20213509;28;100408;-75
2022/07/03 19:18:32;;;;;;;3.17;2.33;;;;;;;29.52;34.28;100299.13;20204755;28;98233;-75
2022/07/03 19:28:33;;;;;;;5.93;2.72;;;;;;;29.35;35.03;100301.03;20213683;28;98779;-76
2022/07/03 19:38:33;;;;;;;4.13;2.53;;;;;;;29.19;35.42;100299.28;20195929;28;98820;-76
2022/07/03 19:48:34;;;;;;;4.57;2.50;;;;;;;29.08;35.39;100305.81;20202901;28;100339;-76
2022/07/03 19:58:35;;;;;;;3.20;2.53;;;;;;;29.03;35.13;100302.84;20227429;28;99553;-77
2022/07/03 20:08:35;;;;;;;3.47;2.45;;;;;;;28.97;35.47;100308.88;20224382;28;98814;-74
2022/07/03 20:18:36;;;;;;;6.00;2.72;;;;;;;28.77;35.81;100317.25;20238018;28;97080;-77
2022/07/03 20:28:36;;;;;;;2.90;2.60;;;;;;;28.72;35.16;100319.59;20220790;28;100954;-76
2022/07/03 20:38:37;;;;;;;2.40;2.20;;;;;;;28.67;35.18;100321.91;20224172;28;98136;-77
2022/07/03 20:48:39;;;;;;;4.50;2.13;;;;;;;28.56;35.26;100313.28;20228298;28;98038;-77
2022/07/03 20:58:39;;;;;;;3.50;2.67;;;;;;;28.41;36.87;100301.66;20221226;28;99584;-76
2022/07/03 21:08:40;;;;;;;4.63;2.60;;;;;;;28.21;37.36;100303.81;20198355;28;100294;-76
2022/07/03 21:18:40;;;;;;;5.37;3.40;;;;;;;28.11;37.59;100304.84;20213451;28;97809;-77
2022/07/03 21:28:40;;;;;;;4.77;3.83;;;;;;;28.08;37.66;100301.69;20213680;28;98276;-76
2022/07/03 21:38:42;;;;;;;6.57;3.50;;;;;;;27.85;38.06;100304.97;20209508;28;98476;-77
2022/07/03 21:48:42;;;;;;;4.47;3.10;;;;;;;27.61;38.73;100314.59;20218592;28;100865;-77
2022/07/03 21:58:43;;;;;;;7.88;3.35;;;;;;;27.37;38.59;100288.75;20200374;28;100255;-76
2022/07/03 22:08:44;;;;;;;5.43;3.17;;;;;;;27.48;38.51;100293.78;20201008;28;100927;-74
2022/07/03 22:18:44;;;;;;;5.20;3.00;;;;;;;27.36;38.16;100295.06;20206989;28;99117;-75
2022/07/03 22:28:45;;;;;;;3.47;3.00;;;;;;;27.47;37.50;100297.44;20204425;28;99436;-76
2022/07/03 22:38:48;;;;;;;4.03;2.80;;;;;;;27.38;37.39;100293.06;20182732;28;99845;-76
2022/07/03 22:48:49;;;;;;;5.05;2.58;;;;;;;27.26;37.67;100294.38;20208545;28;99599;-75
2022/07/03 22:58:49;;;;;;;6.15;2.67;;;;;;;27.24;38.05;100285.72;20192641;28;100799;-76
2022/07/03 23:08:49;;;;;;;6.15;2.95;;;;;;;27.52;37.28;100290.81;20205705;28;101759;-76
2022/07/03 23:18:50;;;;;;;7.63;2.65;;;;;;;27.55;37.33;100280.69;20190160;28;100336;-76
2022/07/03 23:28:51;;;;;;;4.20;2.72;;;;;;;27.54;37.12;100278.16;20185348;28;98157;-74
2022/07/03 23:38:52;;;;;;;2.88;2.60;;;;;;;27.40;37.63;100282.25;20189820;28;97190;-76
2022/07/03 23:59:11;;;;;;;4.82;2.65;;;;;;;27.06;38.30;100286.66;20183548;28;97614;-75
